sensor_id;sensor_type;location;lat;lon;timestamp;P1;durP1;ratioP1;P2;durP2;ratioP2
16640;SDS011;8434;47.990;7.880;2023-01-19T00:00:26;9.47;;;6.13;;
16640;SDS011;8434;47.990;7.880;2023-01-19T00:03:13;9.37;;;6.37;;
16640;SDS011;8434;47.990;7.880;2023-01-19T00:06:03;10.40;;;7.30;;
16640;SDS011;8434;47.990;7.880;2023-01-19T00:08:48;8.43;;;6.00;;
16640;SDS011;8434;47.990;7.880;2023-01-19T00:11:33;8.60;;;5.70;;
16640;SDS011;8434;47.990;7.880;2023-01-19T00:14:18;7.67;;;5.40;;
16640;SDS011;8434;47.990;7.880;2023-01-19T00:17:03;11.47;;;6.60;;
16640;SDS011;8434;47.990;7.880;2023-01-19T00:19:49;7.57;;;4.87;;
16640;SDS011;8434;47.990;7.880;2023-01-19T00:22:34;8.70;;;4.97;;
16640;SDS011;8434;47.990;7.880;2023-01-19T00:25:19;8.80;;;5.17;;
16640;SDS011;8434;47.990;7.880;2023-01-19T00:28:07;6.77;;;4.80;;
16640;SDS011;8434;47.990;7.880;2023-01-19T00:30:52;8.83;;;6.00;;
16640;SDS011;8434;47.990;7.880;2023-01-19T00:33:37;9.23;;;5.80;;
16640;SDS011;8434;47.990;7.880;2023-01-19T00:36:23;7.57;;;5.53;;
16640;SDS011;8434;47.990;7.880;2023-01-19T00:39:08;8.10;;;5.20;;
16640;SDS011;8434;47.990;7.880;2023-01-19T00:41:53;9.00;;;5.57;;
16640;SDS011;8434;47.990;7.880;2023-01-19T00:44:56;9.77;;;6.03;;
16640;SDS011;8434;47.990;7.880;2023-01-19T00:47:41;8.37;;;5.83;;
16640;SDS011;8434;47.990;7.880;2023-01-19T00:50:27;8.70;;;5.37;;
16640;SDS011;8434;47.990;7.880;2023-01-19T00:53:13;9.07;;;5.57;;
16640;SDS011;8434;47.990;7.880;2023-01-19T00:55:58;7.93;;;5.40;;
16640;SDS011;8434;47.990;7.880;2023-01-19T00:58:43;8.90;;;6.00;;
16640;SDS011;8434;47.990;7.880;2023-01-19T01:01:29;8.80;;;6.00;;
16640;SDS011;8434;47.990;7.880;2023-01-19T01:04:13;7.30;;;5.23;;
16640;SDS011;8434;47.990;7.880;2023-01-19T01:06:58;7.27;;;5.20;;
16640;SDS011;8434;47.990;7.880;2023-01-19T01:09:44;8.17;;;5.33;;
16640;SDS011;8434;47.990;7.880;2023-01-19T01:12:29;7.93;;;5.33;;
16640;SDS011;8434;47.990;7.880;2023-01-19T01:15:14;7.60;;;5.00;;
16640;SDS011;8434;47.990;7.880;2023-01-19T01:18:00;10.90;;;6.10;;
16640;SDS011;8434;47.990;7.880;2023-01-19T01:20:45;10.13;;;5.60;;
16640;SDS011;8434;47.990;7.880;2023-01-19T01:23:30;11.20;;;6.07;;
16640;SDS011;8434;47.990;7.880;2023-01-19T01:26:16;10.20;;;5.73;;
16640;SDS011;8434;47.990;7.880;2023-01-19T01:29:01;9.33;;;5.63;;
16640;SDS011;8434;47.990;7.880;2023-01-19T01:31:46;9.37;;;6.03;;
16640;SDS011;8434;47.990;7.880;2023-01-19T01:34:31;9.23;;;5.47;;
16640;SDS011;8434;47.990;7.880;2023-01-19T01:37:16;6.80;;;5.23;;
16640;SDS011;8434;47.990;7.880;2023-01-19T01:40:01;7.50;;;5.10;;
16640;SDS011;8434;47.990;7.880;2023-01-19T01:42:47;9.03;;;5.73;;
16640;SDS011;8434;47.990;7.880;2023-01-19T01:45:33;8.43;;;5.53;;
16640;SDS011;8434;47.990;7.880;2023-01-19T01:48:19;10.07;;;5.77;;
16640;SDS011;8434;47.990;7.880;2023-01-19T01:51:07;8.80;;;5.83;;
16640;SDS011;8434;47.990;7.880;2023-01-19T01:54:10;9.53;;;5.70;;
16640;SDS011;8434;47.990;7.880;2023-01-19T01:56:57;9.10;;;5.77;;
16640;SDS011;8434;47.990;7.880;2023-01-19T01:59:45;7.57;;;5.00;;
16640;SDS011;8434;47.990;7.880;2023-01-19T02:02:33;9.60;;;5.53;;
16640;SDS011;8434;47.990;7.880;2023-01-19T02:05:33;6.77;;;4.70;;
16640;SDS011;8434;47.990;7.880;2023-01-19T02:08:19;8.47;;;4.73;;
16640;SDS011;8434;47.990;7.880;2023-01-19T02:11:23;6.97;;;4.40;;
16640;SDS011;8434;47.990;7.880;2023-01-19T02:14:26;5.27;;;4.20;;
16640;SDS011;8434;47.990;7.880;2023-01-19T02:17:13;9.60;;;5.50;;
16640;SDS011;8434;47.990;7.880;2023-01-19T02:19:58;8.90;;;5.27;;
16640;SDS011;8434;47.990;7.880;2023-01-19T02:22:44;7.37;;;4.50;;
16640;SDS011;8434;47.990;7.880;2023-01-19T02:25:31;9.57;;;5.70;;
16640;SDS011;8434;47.990;7.880;2023-01-19T02:28:17;8.87;;;6.30;;
16640;SDS011;8434;47.990;7.880;2023-01-19T02:31:02;6.93;;;5.53;;
16640;SDS011;8434;47.990;7.880;2023-01-19T02:33:47;9.37;;;5.00;;
16640;SDS011;8434;47.990;7.880;2023-01-19T02:36:34;5.77;;;4.73;;
16640;SDS011;8434;47.990;7.880;2023-01-19T02:39:21;8.17;;;5.07;;
16640;SDS011;8434;47.990;7.880;2023-01-19T02:42:11;7.07;;;5.17;;
16640;SDS011;8434;47.990;7.880;2023-01-19T02:44:57;6.57;;;4.10;;
16640;SDS011;8434;47.990;7.880;2023-01-19T02:47:42;6.60;;;4.50;;
16640;SDS011;8434;47.990;7.880;2023-01-19T02:50:39;7.83;;;4.43;;
16640;SDS011;8434;47.990;7.880;2023-01-19T02:53:37;8.77;;;4.20;;
16640;SDS011;8434;47.990;7.880;2023-01-19T02:59:51;7.60;;;3.93;;
16640;SDS011;8434;47.990;7.880;2023-01-19T03:02:40;6.40;;;4.90;;
16640;SDS011;8434;47.990;7.880;2023-01-19T03:05:31;4.53;;;3.63;;
16640;SDS011;8434;47.990;7.880;2023-01-19T03:08:20;5.97;;;4.07;;
16640;SDS011;8434;47.990;7.880;2023-01-19T03:11:07;6.30;;;3.83;;
16640;SDS011;8434;47.990;7.880;2023-01-19T03:13:53;5.37;;;3.47;;
16640;SDS011;8434;47.990;7.880;2023-01-19T03:16:41;8.07;;;3.87;;
16640;SDS011;8434;47.990;7.880;2023-01-19T03:19:27;5.37;;;3.53;;
16640;SDS011;8434;47.990;7.880;2023-01-19T03:22:16;5.93;;;3.90;;
16640;SDS011;8434;47.990;7.880;2023-01-19T03:25:03;6.83;;;3.63;;
16640;SDS011;8434;47.990;7.880;2023-01-19T03:27:48;4.77;;;3.67;;
16640;SDS011;8434;47.990;7.880;2023-01-19T03:30:34;6.27;;;4.70;;
16640;SDS011;8434;47.990;7.880;2023-01-19T03:33:23;7.20;;;4.37;;
16640;SDS011;8434;47.990;7.880;2023-01-19T03:36:11;5.20;;;3.37;;
16640;SDS011;8434;47.990;7.880;2023-01-19T03:38:58;6.17;;;4.17;;
16640;SDS011;8434;47.990;7.880;2023-01-19T03:41:44;4.50;;;3.37;;
16640;SDS011;8434;47.990;7.880;2023-01-19T03:44:32;6.37;;;4.03;;
16640;SDS011;8434;47.990;7.880;2023-01-19T03:47:18;5.90;;;4.20;;
16640;SDS011;8434;47.990;7.880;2023-01-19T03:50:05;4.83;;;3.70;;
16640;SDS011;8434;47.990;7.880;2023-01-19T03:52:59;5.27;;;3.27;;
16640;SDS011;8434;47.990;7.880;2023-01-19T03:55:45;3.90;;;3.00;;
16640;SDS011;8434;47.990;7.880;2023-01-19T03:58:30;5.20;;;3.50;;
16640;SDS011;8434;47.990;7.880;2023-01-19T04:01:16;6.07;;;3.40;;
16640;SDS011;8434;47.990;7.880;2023-01-19T04:04:03;6.17;;;3.63;;
16640;SDS011;8434;47.990;7.880;2023-01-19T04:06:49;6.07;;;3.73;;
16640;SDS011;8434;47.990;7.880;2023-01-19T04:09:34;5.80;;;3.70;;
16640;SDS011;8434;47.990;7.880;2023-01-19T04:12:19;6.97;;;3.57;;
16640;SDS011;8434;47.990;7.880;2023-01-19T04:15:04;5.57;;;4.37;;
16640;SDS011;8434;47.990;7.880;2023-01-19T04:17:49;6.97;;;3.87;;
16640;SDS011;8434;47.990;7.880;2023-01-19T04:20:34;8.03;;;4.40;;
16640;SDS011;8434;47.990;7.880;2023-01-19T04:23:21;6.40;;;4.27;;
16640;SDS011;8434;47.990;7.880;2023-01-19T04:26:07;5.70;;;3.80;;
16640;SDS011;8434;47.990;7.880;2023-01-19T04:28:52;5.93;;;4.13;;
16640;SDS011;8434;47.990;7.880;2023-01-19T04:31:37;7.07;;;4.30;;
16640;SDS011;8434;47.990;7.880;2023-01-19T04:34:21;6.23;;;3.97;;
16640;SDS011;8434;47.990;7.880;2023-01-19T04:37:06;7.10;;;4.20;;
16640;SDS011;8434;47.990;7.880;2023-01-19T04:39:53;6.63;;;3.90;;
16640;SDS011;8434;47.990;7.880;2023-01-19T04:42:41;5.67;;;3.30;;
16640;SDS011;8434;47.990;7.880;2023-01-19T04:45:26;5.73;;;4.03;;
16640;SDS011;8434;47.990;7.880;2023-01-19T04:48:11;5.77;;;4.00;;
16640;SDS011;8434;47.990;7.880;2023-01-19T04:50:57;5.93;;;3.90;;
16640;SDS011;8434;47.990;7.880;2023-01-19T04:53:42;9.70;;;3.50;;
16640;SDS011;8434;47.990;7.880;2023-01-19T04:56:28;6.47;;;3.83;;
16640;SDS011;8434;47.990;7.880;2023-01-19T04:59:14;6.63;;;4.00;;
16640;SDS011;8434;47.990;7.880;2023-01-19T05:01:59;6.23;;;3.60;;
16640;SDS011;8434;47.990;7.880;2023-01-19T05:04:44;5.47;;;3.73;;
16640;SDS011;8434;47.990;7.880;2023-01-19T05:07:29;5.50;;;3.67;;
16640;SDS011;8434;47.990;7.880;2023-01-19T05:10:14;6.33;;;3.70;;
16640;SDS011;8434;47.990;7.880;2023-01-19T05:13:00;7.20;;;4.10;;
16640;SDS011;8434;47.990;7.880;2023-01-19T05:15:45;7.17;;;3.70;;
16640;SDS011;8434;47.990;7.880;2023-01-19T05:18:30;6.07;;;3.73;;
16640;SDS011;8434;47.990;7.880;2023-01-19T05:21:18;5.97;;;3.77;;
16640;SDS011;8434;47.990;7.880;2023-01-19T05:24:04;4.80;;;3.37;;
16640;SDS011;8434;47.990;7.880;2023-01-19T05:26:49;7.23;;;4.70;;
16640;SDS011;8434;47.990;7.880;2023-01-19T05:29:35;5.67;;;3.23;;
16640;SDS011;8434;47.990;7.880;2023-01-19T05:32:20;6.30;;;3.70;;
16640;SDS011;8434;47.990;7.880;2023-01-19T05:35:05;8.33;;;4.20;;
16640;SDS011;8434;47.990;7.880;2023-01-19T05:37:53;5.80;;;3.53;;
16640;SDS011;8434;47.990;7.880;2023-01-19T05:40:38;4.60;;;3.43;;
16640;SDS011;8434;47.990;7.880;2023-01-19T05:43:23;8.27;;;4.37;;
16640;SDS011;8434;47.990;7.880;2023-01-19T05:46:10;8.53;;;4.50;;
16640;SDS011;8434;47.990;7.880;2023-01-19T05:48:55;7.07;;;4.07;;
16640;SDS011;8434;47.990;7.880;2023-01-19T05:51:40;6.37;;;3.47;;
16640;SDS011;8434;47.990;7.880;2023-01-19T05:54:28;5.30;;;3.53;;
16640;SDS011;8434;47.990;7.880;2023-01-19T05:57:13;5.47;;;3.77;;
16640;SDS011;8434;47.990;7.880;2023-01-19T05:59:58;6.90;;;4.10;;
16640;SDS011;8434;47.990;7.880;2023-01-19T06:02:44;5.03;;;3.47;;
16640;SDS011;8434;47.990;7.880;2023-01-19T06:05:31;7.30;;;3.77;;
16640;SDS011;8434;47.990;7.880;2023-01-19T06:08:16;3.50;;;3.20;;
16640;SDS011;8434;47.990;7.880;2023-01-19T06:11:01;5.53;;;3.50;;
16640;SDS011;8434;47.990;7.880;2023-01-19T06:13:49;4.30;;;3.20;;
16640;SDS011;8434;47.990;7.880;2023-01-19T06:16:34;5.20;;;3.17;;
16640;SDS011;8434;47.990;7.880;2023-01-19T06:19:21;4.40;;;3.30;;
16640;SDS011;8434;47.990;7.880;2023-01-19T06:22:06;5.70;;;3.67;;
16640;SDS011;8434;47.990;7.880;2023-01-19T06:24:51;4.40;;;3.00;;
16640;SDS011;8434;47.990;7.880;2023-01-19T06:27:36;4.60;;;3.00;;
16640;SDS011;8434;47.990;7.880;2023-01-19T06:30:22;4.00;;;3.27;;
16640;SDS011;8434;47.990;7.880;2023-01-19T06:33:07;3.93;;;2.90;;
16640;SDS011;8434;47.990;7.880;2023-01-19T06:35:53;3.97;;;3.07;;
16640;SDS011;8434;47.990;7.880;2023-01-19T06:38:38;5.03;;;3.40;;
16640;SDS011;8434;47.990;7.880;2023-01-19T06:41:23;7.73;;;2.93;;
16640;SDS011;8434;47.990;7.880;2023-01-19T06:44:08;6.90;;;3.40;;
16640;SDS011;8434;47.990;7.880;2023-01-19T06:46:53;7.27;;;4.37;;
16640;SDS011;8434;47.990;7.880;2023-01-19T06:49:38;4.97;;;3.53;;
16640;SDS011;8434;47.990;7.880;2023-01-19T06:52:25;6.10;;;4.13;;
16640;SDS011;8434;47.990;7.880;2023-01-19T06:55:10;5.83;;;3.97;;
16640;SDS011;8434;47.990;7.880;2023-01-19T06:57:57;5.43;;;3.73;;
16640;SDS011;8434;47.990;7.880;2023-01-19T07:00:42;6.97;;;3.77;;
16640;SDS011;8434;47.990;7.880;2023-01-19T07:03:27;6.37;;;4.73;;
16640;SDS011;8434;47.990;7.880;2023-01-19T07:06:12;8.17;;;4.53;;
16640;SDS011;8434;47.990;7.880;2023-01-19T07:08:59;7.97;;;3.57;;
16640;SDS011;8434;47.990;7.880;2023-01-19T07:11:49;3.77;;;3.10;;
16640;SDS011;8434;47.990;7.880;2023-01-19T07:14:35;6.77;;;3.57;;
16640;SDS011;8434;47.990;7.880;2023-01-19T07:17:20;6.33;;;3.50;;
16640;SDS011;8434;47.990;7.880;2023-01-19T07:20:06;4.93;;;3.10;;
16640;SDS011;8434;47.990;7.880;2023-01-19T07:22:54;6.27;;;3.27;;
16640;SDS011;8434;47.990;7.880;2023-01-19T07:25:44;6.03;;;4.20;;
16640;SDS011;8434;47.990;7.880;2023-01-19T07:28:30;4.97;;;4.03;;
16640;SDS011;8434;47.990;7.880;2023-01-19T07:31:15;4.53;;;3.27;;
16640;SDS011;8434;47.990;7.880;2023-01-19T07:34:00;5.50;;;3.33;;
16640;SDS011;8434;47.990;7.880;2023-01-19T07:36:45;7.17;;;3.70;;
16640;SDS011;8434;47.990;7.880;2023-01-19T07:39:30;4.93;;;3.43;;
16640;SDS011;8434;47.990;7.880;2023-01-19T07:42:17;6.50;;;3.63;;
16640;SDS011;8434;47.990;7.880;2023-01-19T07:45:02;6.53;;;3.97;;
16640;SDS011;8434;47.990;7.880;2023-01-19T07:47:47;6.50;;;3.57;;
16640;SDS011;8434;47.990;7.880;2023-01-19T07:50:32;5.20;;;3.30;;
16640;SDS011;8434;47.990;7.880;2023-01-19T07:53:17;7.03;;;3.47;;
16640;SDS011;8434;47.990;7.880;2023-01-19T07:56:03;6.60;;;3.17;;
16640;SDS011;8434;47.990;7.880;2023-01-19T07:58:49;5.13;;;3.13;;
16640;SDS011;8434;47.990;7.880;2023-01-19T08:01:35;4.67;;;3.23;;
16640;SDS011;8434;47.990;7.880;2023-01-19T08:04:20;4.27;;;3.00;;
16640;SDS011;8434;47.990;7.880;2023-01-19T08:07:05;7.00;;;3.93;;
16640;SDS011;8434;47.990;7.880;2023-01-19T08:09:50;5.23;;;3.40;;
16640;SDS011;8434;47.990;7.880;2023-01-19T08:12:35;5.27;;;3.30;;
16640;SDS011;8434;47.990;7.880;2023-01-19T08:15:22;5.93;;;3.37;;
16640;SDS011;8434;47.990;7.880;2023-01-19T08:18:08;6.17;;;4.23;;
16640;SDS011;8434;47.990;7.880;2023-01-19T08:20:54;5.03;;;3.33;;
16640;SDS011;8434;47.990;7.880;2023-01-19T08:23:39;5.50;;;3.93;;
16640;SDS011;8434;47.990;7.880;2023-01-19T08:26:27;5.93;;;3.47;;
16640;SDS011;8434;47.990;7.880;2023-01-19T08:29:12;5.87;;;3.33;;
16640;SDS011;8434;47.990;7.880;2023-01-19T08:31:58;5.73;;;3.53;;
16640;SDS011;8434;47.990;7.880;2023-01-19T08:34:45;4.10;;;2.87;;
16640;SDS011;8434;47.990;7.880;2023-01-19T08:37:31;6.53;;;3.97;;
16640;SDS011;8434;47.990;7.880;2023-01-19T08:40:16;5.90;;;3.20;;
16640;SDS011;8434;47.990;7.880;2023-01-19T08:43:03;5.97;;;3.40;;
16640;SDS011;8434;47.990;7.880;2023-01-19T08:45:51;5.23;;;3.47;;
16640;SDS011;8434;47.990;7.880;2023-01-19T08:48:37;3.57;;;2.80;;
16640;SDS011;8434;47.990;7.880;2023-01-19T08:51:22;6.33;;;3.47;;
16640;SDS011;8434;47.990;7.880;2023-01-19T08:54:07;6.40;;;3.57;;
16640;SDS011;8434;47.990;7.880;2023-01-19T08:56:52;5.20;;;3.23;;
16640;SDS011;8434;47.990;7.880;2023-01-19T08:59:37;5.73;;;3.10;;
16640;SDS011;8434;47.990;7.880;2023-01-19T09:02:22;6.33;;;3.87;;
16640;SDS011;8434;47.990;7.880;2023-01-19T09:05:08;4.90;;;3.47;;
16640;SDS011;8434;47.990;7.880;2023-01-19T09:07:53;7.80;;;2.87;;
16640;SDS011;8434;47.990;7.880;2023-01-19T09:10:42;5.70;;;3.20;;
16640;SDS011;8434;47.990;7.880;2023-01-19T09:13:28;6.80;;;2.77;;
16640;SDS011;8434;47.990;7.880;2023-01-19T09:16:12;3.60;;;2.77;;
16640;SDS011;8434;47.990;7.880;2023-01-19T09:18:58;3.67;;;3.13;;
16640;SDS011;8434;47.990;7.880;2023-01-19T09:21:45;5.50;;;3.20;;
16640;SDS011;8434;47.990;7.880;2023-01-19T09:24:30;6.10;;;3.37;;
16640;SDS011;8434;47.990;7.880;2023-01-19T09:27:17;2.97;;;2.63;;
16640;SDS011;8434;47.990;7.880;2023-01-19T09:30:03;3.10;;;2.67;;
16640;SDS011;8434;47.990;7.880;2023-01-19T09:32:48;3.97;;;2.83;;
16640;SDS011;8434;47.990;7.880;2023-01-19T09:35:33;3.83;;;2.73;;
16640;SDS011;8434;47.990;7.880;2023-01-19T09:38:19;6.40;;;3.03;;
16640;SDS011;8434;47.990;7.880;2023-01-19T09:41:08;5.10;;;3.33;;
16640;SDS011;8434;47.990;7.880;2023-01-19T09:43:56;5.77;;;3.30;;
16640;SDS011;8434;47.990;7.880;2023-01-19T09:46:42;4.27;;;3.50;;
16640;SDS011;8434;47.990;7.880;2023-01-19T09:49:29;7.77;;;3.17;;
16640;SDS011;8434;47.990;7.880;2023-01-19T09:52:15;2.93;;;2.63;;
16640;SDS011;8434;47.990;7.880;2023-01-19T09:55:02;4.70;;;2.90;;
16640;SDS011;8434;47.990;7.880;2023-01-19T09:57:47;4.07;;;2.70;;
16640;SDS011;8434;47.990;7.880;2023-01-19T10:00:33;3.83;;;2.40;;
16640;SDS011;8434;47.990;7.880;2023-01-19T10:03:17;4.33;;;3.17;;
16640;SDS011;8434;47.990;7.880;2023-01-19T10:06:03;3.63;;;2.73;;
16640;SDS011;8434;47.990;7.880;2023-01-19T10:08:51;5.10;;;2.90;;
16640;SDS011;8434;47.990;7.880;2023-01-19T10:11:42;4.70;;;3.03;;
16640;SDS011;8434;47.990;7.880;2023-01-19T10:14:29;6.13;;;3.50;;
16640;SDS011;8434;47.990;7.880;2023-01-19T10:17:19;4.47;;;3.30;;
16640;SDS011;8434;47.990;7.880;2023-01-19T10:20:09;4.10;;;3.20;;
16640;SDS011;8434;47.990;7.880;2023-01-19T10:22:57;6.93;;;2.97;;
16640;SDS011;8434;47.990;7.880;2023-01-19T10:25:43;3.83;;;3.43;;
16640;SDS011;8434;47.990;7.880;2023-01-19T10:28:30;4.67;;;2.87;;
16640;SDS011;8434;47.990;7.880;2023-01-19T10:31:16;5.00;;;3.43;;
16640;SDS011;8434;47.990;7.880;2023-01-19T10:34:01;4.40;;;3.40;;
16640;SDS011;8434;47.990;7.880;2023-01-19T10:36:47;5.53;;;3.80;;
16640;SDS011;8434;47.990;7.880;2023-01-19T10:39:33;2.97;;;2.67;;
16640;SDS011;8434;47.990;7.880;2023-01-19T10:42:18;4.63;;;3.17;;
16640;SDS011;8434;47.990;7.880;2023-01-19T10:45:06;4.83;;;2.83;;
16640;SDS011;8434;47.990;7.880;2023-01-19T10:47:59;5.07;;;3.10;;
16640;SDS011;8434;47.990;7.880;2023-01-19T10:50:44;4.40;;;2.93;;
16640;SDS011;8434;47.990;7.880;2023-01-19T10:53:29;6.60;;;3.60;;
16640;SDS011;8434;47.990;7.880;2023-01-19T10:56:15;4.53;;;3.10;;
16640;SDS011;8434;47.990;7.880;2023-01-19T10:59:01;4.70;;;3.23;;
16640;SDS011;8434;47.990;7.880;2023-01-19T11:01:48;5.37;;;3.97;;
16640;SDS011;8434;47.990;7.880;2023-01-19T11:04:47;5.13;;;3.57;;
16640;SDS011;8434;47.990;7.880;2023-01-19T11:07:32;8.37;;;5.37;;
16640;SDS011;8434;47.990;7.880;2023-01-19T11:10:20;9.97;;;5.53;;
16640;SDS011;8434;47.990;7.880;2023-01-19T11:13:06;7.70;;;4.13;;
16640;SDS011;8434;47.990;7.880;2023-01-19T11:15:55;6.30;;;4.23;;
16640;SDS011;8434;47.990;7.880;2023-01-19T11:18:42;8.40;;;5.20;;
16640;SDS011;8434;47.990;7.880;2023-01-19T11:21:28;4.80;;;3.43;;
16640;SDS011;8434;47.990;7.880;2023-01-19T11:24:14;6.90;;;4.77;;
16640;SDS011;8434;47.990;7.880;2023-01-19T11:26:59;7.80;;;4.53;;
16640;SDS011;8434;47.990;7.880;2023-01-19T11:29:46;6.40;;;3.43;;
16640;SDS011;8434;47.990;7.880;2023-01-19T11:32:32;7.30;;;3.67;;
16640;SDS011;8434;47.990;7.880;2023-01-19T11:35:31;5.37;;;3.97;;
16640;SDS011;8434;47.990;7.880;2023-01-19T11:38:18;3.60;;;3.00;;
16640;SDS011;8434;47.990;7.880;2023-01-19T11:41:03;4.00;;;2.90;;
16640;SDS011;8434;47.990;7.880;2023-01-19T11:43:50;3.73;;;2.80;;
16640;SDS011;8434;47.990;7.880;2023-01-19T11:46:37;5.07;;;2.97;;
16640;SDS011;8434;47.990;7.880;2023-01-19T11:49:24;3.63;;;2.80;;
16640;SDS011;8434;47.990;7.880;2023-01-19T11:52:14;3.53;;;2.90;;
16640;SDS011;8434;47.990;7.880;2023-01-19T11:55:04;3.00;;;2.30;;
16640;SDS011;8434;47.990;7.880;2023-01-19T11:57:51;3.50;;;2.77;;
16640;SDS011;8434;47.990;7.880;2023-01-19T12:00:37;5.57;;;3.13;;
16640;SDS011;8434;47.990;7.880;2023-01-19T12:03:24;5.50;;;3.67;;
16640;SDS011;8434;47.990;7.880;2023-01-19T12:06:10;2.87;;;2.33;;
16640;SDS011;8434;47.990;7.880;2023-01-19T12:08:59;3.23;;;2.23;;
16640;SDS011;8434;47.990;7.880;2023-01-19T12:11:46;3.60;;;2.40;;
16640;SDS011;8434;47.990;7.880;2023-01-19T12:14:33;3.70;;;2.30;;
16640;SDS011;8434;47.990;7.880;2023-01-19T12:17:22;3.90;;;2.53;;
16640;SDS011;8434;47.990;7.880;2023-01-19T12:20:12;6.60;;;2.60;;
16640;SDS011;8434;47.990;7.880;2023-01-19T12:23:01;4.30;;;2.60;;
16640;SDS011;8434;47.990;7.880;2023-01-19T12:25:52;2.83;;;2.33;;
16640;SDS011;8434;47.990;7.880;2023-01-19T12:28:44;3.47;;;2.60;;
16640;SDS011;8434;47.990;7.880;2023-01-19T12:31:30;3.77;;;2.80;;
16640;SDS011;8434;47.990;7.880;2023-01-19T12:37:35;3.50;;;2.73;;
16640;SDS011;8434;47.990;7.880;2023-01-19T12:40:23;2.97;;;2.33;;
16640;SDS011;8434;47.990;7.880;2023-01-19T12:43:13;4.10;;;2.70;;
16640;SDS011;8434;47.990;7.880;2023-01-19T12:45:59;4.33;;;2.97;;
16640;SDS011;8434;47.990;7.880;2023-01-19T12:48:46;5.67;;;3.20;;
16640;SDS011;8434;47.990;7.880;2023-01-19T12:51:31;6.23;;;3.70;;
16640;SDS011;8434;47.990;7.880;2023-01-19T12:54:18;5.17;;;3.40;;
16640;SDS011;8434;47.990;7.880;2023-01-19T12:57:05;4.10;;;3.70;;
16640;SDS011;8434;47.990;7.880;2023-01-19T12:59:57;4.73;;;3.27;;
16640;SDS011;8434;47.990;7.880;2023-01-19T13:02:43;4.87;;;3.80;;
16640;SDS011;8434;47.990;7.880;2023-01-19T13:08:54;5.43;;;3.47;;
16640;SDS011;8434;47.990;7.880;2023-01-19T13:14:39;4.73;;;4.00;;
16640;SDS011;8434;47.990;7.880;2023-01-19T13:17:30;5.20;;;3.73;;
16640;SDS011;8434;47.990;7.880;2023-01-19T13:23:18;4.23;;;3.23;;
16640;SDS011;8434;47.990;7.880;2023-01-19T13:26:04;3.73;;;3.03;;
16640;SDS011;8434;47.990;7.880;2023-01-19T13:28:51;5.90;;;3.07;;
16640;SDS011;8434;47.990;7.880;2023-01-19T13:31:38;3.87;;;2.80;;
16640;SDS011;8434;47.990;7.880;2023-01-19T13:34:25;5.13;;;3.60;;
16640;SDS011;8434;47.990;7.880;2023-01-19T13:37:12;3.87;;;3.10;;
16640;SDS011;8434;47.990;7.880;2023-01-19T13:39:58;4.07;;;3.60;;
16640;SDS011;8434;47.990;7.880;2023-01-19T13:42:43;5.23;;;3.07;;
16640;SDS011;8434;47.990;7.880;2023-01-19T13:45:30;4.73;;;3.00;;
16640;SDS011;8434;47.990;7.880;2023-01-19T13:48:16;4.67;;;3.83;;
16640;SDS011;8434;47.990;7.880;2023-01-19T13:51:04;4.60;;;3.63;;
16640;SDS011;8434;47.990;7.880;2023-01-19T13:53:53;5.67;;;3.17;;
16640;SDS011;8434;47.990;7.880;2023-01-19T13:56:38;5.97;;;3.73;;
16640;SDS011;8434;47.990;7.880;2023-01-19T13:59:26;6.13;;;3.67;;
16640;SDS011;8434;47.990;7.880;2023-01-19T14:02:11;7.60;;;3.47;;
16640;SDS011;8434;47.990;7.880;2023-01-19T14:04:57;4.77;;;3.47;;
16640;SDS011;8434;47.990;7.880;2023-01-19T14:07:43;7.67;;;3.97;;
16640;SDS011;8434;47.990;7.880;2023-01-19T14:10:28;5.57;;;3.47;;
16640;SDS011;8434;47.990;7.880;2023-01-19T14:13:15;4.67;;;3.70;;
16640;SDS011;8434;47.990;7.880;2023-01-19T14:16:03;4.80;;;3.17;;
16640;SDS011;8434;47.990;7.880;2023-01-19T14:18:57;3.40;;;2.93;;
16640;SDS011;8434;47.990;7.880;2023-01-19T14:21:42;5.70;;;3.67;;
16640;SDS011;8434;47.990;7.880;2023-01-19T14:24:30;5.30;;;3.20;;
16640;SDS011;8434;47.990;7.880;2023-01-19T14:27:16;3.23;;;2.60;;
16640;SDS011;8434;47.990;7.880;2023-01-19T14:30:10;4.93;;;4.13;;
16640;SDS011;8434;47.990;7.880;2023-01-19T14:32:57;5.00;;;3.13;;
16640;SDS011;8434;47.990;7.880;2023-01-19T14:35:42;3.00;;;2.70;;
16640;SDS011;8434;47.990;7.880;2023-01-19T14:38:27;4.17;;;2.93;;
16640;SDS011;8434;47.990;7.880;2023-01-19T14:41:20;5.27;;;3.60;;
16640;SDS011;8434;47.990;7.880;2023-01-19T14:44:07;5.53;;;3.17;;
16640;SDS011;8434;47.990;7.880;2023-01-19T14:46:52;4.60;;;3.00;;
16640;SDS011;8434;47.990;7.880;2023-01-19T14:49:38;3.20;;;2.90;;
16640;SDS011;8434;47.990;7.880;2023-01-19T14:52:24;5.23;;;3.60;;
16640;SDS011;8434;47.990;7.880;2023-01-19T14:55:15;6.07;;;3.50;;
16640;SDS011;8434;47.990;7.880;2023-01-19T14:58:08;5.40;;;4.10;;
16640;SDS011;8434;47.990;7.880;2023-01-19T15:00:54;4.63;;;3.13;;
16640;SDS011;8434;47.990;7.880;2023-01-19T15:03:39;4.17;;;2.83;;
16640;SDS011;8434;47.990;7.880;2023-01-19T15:06:24;7.33;;;4.93;;
16640;SDS011;8434;47.990;7.880;2023-01-19T15:09:10;6.90;;;4.17;;
16640;SDS011;8434;47.990;7.880;2023-01-19T15:11:57;4.60;;;3.60;;
16640;SDS011;8434;47.990;7.880;2023-01-19T15:14:44;7.00;;;4.03;;
16640;SDS011;8434;47.990;7.880;2023-01-19T15:17:29;8.27;;;4.30;;
16640;SDS011;8434;47.990;7.880;2023-01-19T15:20:15;6.43;;;4.20;;
16640;SDS011;8434;47.990;7.880;2023-01-19T15:23:01;5.97;;;4.20;;
16640;SDS011;8434;47.990;7.880;2023-01-19T15:25:46;6.17;;;4.20;;
16640;SDS011;8434;47.990;7.880;2023-01-19T15:28:32;6.67;;;4.57;;
16640;SDS011;8434;47.990;7.880;2023-01-19T15:31:19;4.13;;;3.20;;
16640;SDS011;8434;47.990;7.880;2023-01-19T15:34:06;3.83;;;3.00;;
16640;SDS011;8434;47.990;7.880;2023-01-19T15:36:51;3.67;;;2.67;;
16640;SDS011;8434;47.990;7.880;2023-01-19T15:39:36;4.57;;;3.10;;
16640;SDS011;8434;47.990;7.880;2023-01-19T15:42:22;5.47;;;3.30;;
16640;SDS011;8434;47.990;7.880;2023-01-19T15:45:16;4.90;;;2.73;;
16640;SDS011;8434;47.990;7.880;2023-01-19T15:48:07;5.97;;;3.30;;
16640;SDS011;8434;47.990;7.880;2023-01-19T15:50:53;3.87;;;3.00;;
16640;SDS011;8434;47.990;7.880;2023-01-19T15:53:38;4.03;;;3.60;;
16640;SDS011;8434;47.990;7.880;2023-01-19T15:56:23;3.97;;;2.57;;
16640;SDS011;8434;47.990;7.880;2023-01-19T15:59:09;6.30;;;2.80;;
16640;SDS011;8434;47.990;7.880;2023-01-19T16:01:55;5.73;;;2.97;;
16640;SDS011;8434;47.990;7.880;2023-01-19T16:04:41;5.50;;;3.07;;
16640;SDS011;8434;47.990;7.880;2023-01-19T16:07:26;4.27;;;3.10;;
16640;SDS011;8434;47.990;7.880;2023-01-19T16:10:15;3.73;;;3.37;;
16640;SDS011;8434;47.990;7.880;2023-01-19T16:13:00;4.10;;;2.47;;
16640;SDS011;8434;47.990;7.880;2023-01-19T16:15:45;5.77;;;3.33;;
16640;SDS011;8434;47.990;7.880;2023-01-19T16:18:30;5.30;;;3.03;;
16640;SDS011;8434;47.990;7.880;2023-01-19T16:21:17;6.17;;;3.77;;
16640;SDS011;8434;47.990;7.880;2023-01-19T16:24:02;4.50;;;2.70;;
16640;SDS011;8434;47.990;7.880;2023-01-19T16:26:47;3.80;;;2.30;;
16640;SDS011;8434;47.990;7.880;2023-01-19T16:29:32;3.77;;;2.70;;
16640;SDS011;8434;47.990;7.880;2023-01-19T16:32:17;3.83;;;2.47;;
16640;SDS011;8434;47.990;7.880;2023-01-19T16:35:03;3.80;;;2.47;;
16640;SDS011;8434;47.990;7.880;2023-01-19T16:37:50;4.90;;;2.50;;
16640;SDS011;8434;47.990;7.880;2023-01-19T16:40:35;4.80;;;2.97;;
16640;SDS011;8434;47.990;7.880;2023-01-19T16:43:21;30.87;;;3.50;;
16640;SDS011;8434;47.990;7.880;2023-01-19T16:46:05;3.93;;;2.40;;
16640;SDS011;8434;47.990;7.880;2023-01-19T16:48:53;3.30;;;2.47;;
16640;SDS011;8434;47.990;7.880;2023-01-19T16:51:42;3.77;;;2.67;;
16640;SDS011;8434;47.990;7.880;2023-01-19T16:54:29;8.37;;;3.40;;
16640;SDS011;8434;47.990;7.880;2023-01-19T16:57:14;13.00;;;6.33;;
16640;SDS011;8434;47.990;7.880;2023-01-19T17:00:01;11.43;;;5.17;;
16640;SDS011;8434;47.990;7.880;2023-01-19T17:02:58;6.70;;;3.30;;
16640;SDS011;8434;47.990;7.880;2023-01-19T17:05:49;4.57;;;2.70;;
16640;SDS011;8434;47.990;7.880;2023-01-19T17:08:34;4.37;;;2.50;;
16640;SDS011;8434;47.990;7.880;2023-01-19T17:11:22;3.40;;;2.20;;
16640;SDS011;8434;47.990;7.880;2023-01-19T17:14:09;4.73;;;2.83;;